createdAt,value
2022-11-14T00:04:45.230Z,7.97
2022-11-14T00:09:55.645Z,9.33
2022-11-14T00:15:13.915Z,4.57
2022-11-14T00:20:24.954Z,12.53
2022-11-14T00:25:40.630Z,6.50
2022-11-14T00:31:02.962Z,11.93
2022-11-14T00:42:27.593Z,10.20
2022-11-14T00:47:40.669Z,15.13
2022-11-14T00:53:00.984Z,7.87
2022-11-14T00:58:31.720Z,7.53
2022-11-14T01:03:45.302Z,9.00
2022-11-14T01:08:57.410Z,8.67
2022-11-14T01:14:10.379Z,15.10
2022-11-14T01:19:19.436Z,11.80
2022-11-14T01:24:34.850Z,13.67
2022-11-14T01:29:41.956Z,15.77
2022-11-14T01:34:50.198Z,10.00
2022-11-14T01:40:03.764Z,13.00
2022-11-14T01:45:56.320Z,8.60
2022-11-14T01:51:36.482Z,12.93
2022-11-14T01:57:21.812Z,15.03
2022-11-14T05:24:37.066Z,15.77
2022-11-14T05:29:45.274Z,19.03
2022-11-14T05:34:51.051Z,17.40
2022-11-14T05:39:56.573Z,16.23
2022-11-14T05:45:06.506Z,12.00
2022-11-14T05:50:21.209Z,18.17
2022-11-14T05:55:37.965Z,12.20
2022-11-14T06:00:50.907Z,20.10
2022-11-14T06:05:57.710Z,21.20
2022-11-14T06:11:09.515Z,19.10
2022-11-14T06:27:36.866Z,20.90
2022-11-14T06:32:49.539Z,24.03
2022-11-14T06:38:06.301Z,29.73
2022-11-14T06:43:25.657Z,19.17
2022-11-14T06:48:50.318Z,16.50
2022-11-14T06:54:22.165Z,28.10
2022-11-14T07:05:09.853Z,24.03
2022-11-14T07:10:28.725Z,44.67
2022-11-14T07:15:45.209Z,28.43
2022-11-14T07:21:01.530Z,24.10
2022-11-14T07:26:10.907Z,36.97
2022-11-14T07:31:21.365Z,30.90
2022-11-14T07:36:29.743Z,21.60
2022-11-14T07:41:35.348Z,24.27
2022-11-14T07:46:46.072Z,14.83
2022-11-14T07:51:51.940Z,20.07
2022-11-14T07:56:57.601Z,16.43
2022-11-14T08:02:08.441Z,24.67
2022-11-14T08:07:14.096Z,29.97
2022-11-14T08:12:19.687Z,22.90
2022-11-14T08:17:28.151Z,22.00
2022-11-14T08:22:37.164Z,19.63
2022-11-14T08:27:42.948Z,29.90
2022-11-14T08:32:48.495Z,19.53
2022-11-14T08:37:54.046Z,25.83
2022-11-14T08:43:08.758Z,23.87
2022-11-14T08:48:15.347Z,19.33
2022-11-14T08:53:21.586Z,25.03
2022-11-14T08:58:31.041Z,37.03
2022-11-14T09:03:38.278Z,17.73
2022-11-14T09:08:43.927Z,29.37
2022-11-14T09:13:49.687Z,22.83
2022-11-14T09:18:56.279Z,22.00
2022-11-14T09:24:02.069Z,22.53
2022-11-14T09:29:10.088Z,20.43
2022-11-14T09:34:15.642Z,13.63
2022-11-14T09:39:21.152Z,30.00
2022-11-14T09:44:41.640Z,25.27
2022-11-14T09:49:48.968Z,25.23
2022-11-14T09:54:57.483Z,18.33
2022-11-14T10:00:03.196Z,29.53
2022-11-14T10:05:24.105Z,20.70
2022-11-14T10:10:41.491Z,17.63
2022-11-14T10:15:55.739Z,26.07
2022-11-14T10:21:04.302Z,23.77
2022-11-14T10:26:31.689Z,26.80
2022-11-14T10:31:42.945Z,27.70
2022-11-14T10:36:57.714Z,21.40
2022-11-14T10:42:07.888Z,27.47
2022-11-14T10:47:16.078Z,30.77
2022-11-14T10:52:24.105Z,32.67
2022-11-14T10:57:30.265Z,36.03
2022-11-14T11:02:56.568Z,29.50
2022-11-14T11:13:33.075Z,30.90
2022-11-14T11:18:38.845Z,28.00
2022-11-14T11:23:58.192Z,30.10
2022-11-14T11:29:12.274Z,35.67
2022-11-14T11:34:26.770Z,33.30
2022-11-14T11:39:34.798Z,34.70
2022-11-14T11:44:43.218Z,33.57
2022-11-14T11:49:54.711Z,28.33
2022-11-14T11:55:11.365Z,28.70
2022-11-14T12:00:19.491Z,20.47
2022-11-14T12:05:27.858Z,27.37
2022-11-14T12:10:36.249Z,24.77
2022-11-14T12:16:02.594Z,30.30
2022-11-14T12:21:12.576Z,40.50
2022-11-14T12:26:41.139Z,46.33
2022-11-14T12:31:47.917Z,38.17
2022-11-14T12:36:53.471Z,38.80
2022-11-14T12:42:07.459Z,30.70
2022-11-14T12:47:24.610Z,26.20
2022-11-14T12:52:49.201Z,25.33
2022-11-14T12:58:09.749Z,36.13
2022-11-14T13:03:23.788Z,26.77
2022-11-14T13:08:43.237Z,21.37
2022-11-14T13:14:21.925Z,37.00
2022-11-14T13:25:06.115Z,23.80
2022-11-14T13:36:05.259Z,26.03
2022-11-14T13:41:46.656Z,30.87
2022-11-14T13:46:45.900Z,18.03
2022-11-14T13:51:58.027Z,32.47
2022-11-14T13:57:24.450Z,32.30
2022-11-14T14:03:05.835Z,18.47
2022-11-14T14:08:14.380Z,17.10
2022-11-14T14:13:39.562Z,29.07
2022-11-14T14:18:57.195Z,24.97
2022-11-14T14:24:17.507Z,23.70
2022-11-14T14:29:32.758Z,22.63
2022-11-14T14:34:40.116Z,24.83
2022-11-14T14:40:01.375Z,27.37
2022-11-14T14:45:18.774Z,22.13
2022-11-14T14:50:40.613Z,20.17
2022-11-14T14:55:49.010Z,15.93
2022-11-14T15:01:03.249Z,22.80
2022-11-14T15:06:29.594Z,27.27
2022-11-14T15:11:36.142Z,21.10
2022-11-14T15:16:42.281Z,20.10
2022-11-14T15:21:49.488Z,22.60
2022-11-14T15:27:01.432Z,27.20
2022-11-14T15:32:29.119Z,22.27
2022-11-14T15:37:37.796Z,33.07
2022-11-14T15:42:51.366Z,29.23
2022-11-14T15:48:05.771Z,37.30
2022-11-14T15:53:25.274Z,27.10
2022-11-14T15:58:30.662Z,25.80
2022-11-14T16:03:36.010Z,26.40
2022-11-14T16:08:41.290Z,22.70
2022-11-14T16:13:46.584Z,19.50
2022-11-14T16:18:51.941Z,39.57
2022-11-14T16:23:58.129Z,18.83
2022-11-14T16:29:03.519Z,25.30
2022-11-14T16:34:10.118Z,28.00
2022-11-14T16:39:16.048Z,22.30
2022-11-14T16:44:21.420Z,20.73
2022-11-14T16:49:27.048Z,26.63
2022-11-14T16:54:33.419Z,23.87
2022-11-14T16:59:39.912Z,36.43
2022-11-14T17:04:45.990Z,24.43
2022-11-14T17:09:51.449Z,18.90
2022-11-14T17:14:56.962Z,26.17
2022-11-14T17:20:02.574Z,30.93
2022-11-14T17:25:08.345Z,33.50
2022-11-14T17:35:19.086Z,26.33
2022-11-14T17:40:24.667Z,23.70
2022-11-14T17:45:30.217Z,25.13
2022-11-14T17:50:38.698Z,21.83
2022-11-14T17:55:45.694Z,23.40
2022-11-14T18:00:52.522Z,23.97
2022-11-14T18:06:12.675Z,26.87
2022-11-14T18:11:20.758Z,45.97
2022-11-14T18:16:50.598Z,38.30
2022-11-14T18:21:38.184Z,25.77
2022-11-14T18:27:08.390Z,22.17
2022-11-14T18:37:47.981Z,27.47
2022-11-14T18:43:04.244Z,37.17
2022-11-14T18:53:57.812Z,34.87
2022-11-14T18:59:05.912Z,33.40
2022-11-14T19:04:13.914Z,37.77
2022-11-14T19:09:25.672Z,30.03
2022-11-14T19:14:33.560Z,41.47
2022-11-14T19:19:40.741Z,27.77
2022-11-14T19:24:47.736Z,35.63
2022-11-14T19:29:54.100Z,26.00
2022-11-14T19:35:03.479Z,30.13
2022-11-14T19:40:14.044Z,39.93
2022-11-14T19:51:05.060Z,38.83
2022-11-14T19:56:12.857Z,34.83
2022-11-14T20:01:36.062Z,34.83
2022-11-14T20:06:43.790Z,26.97
2022-11-14T20:11:49.439Z,33.67
2022-11-14T20:16:54.843Z,39.37
2022-11-14T20:22:00.282Z,37.00
2022-11-14T20:27:05.684Z,27.83
2022-11-14T20:32:15.608Z,31.43
2022-11-14T20:37:18.244Z,32.13
2022-11-14T20:42:23.724Z,26.80
2022-11-14T20:47:30.690Z,42.53
2022-11-14T20:52:38.007Z,38.20
2022-11-14T20:57:43.447Z,34.50
2022-11-14T21:02:49.238Z,35.43
2022-11-14T21:07:54.735Z,37.10
2022-11-14T21:13:17.911Z,23.97
2022-11-14T21:18:23.241Z,34.17
2022-11-14T21:23:28.946Z,33.90
2022-11-14T21:28:35.576Z,27.67
2022-11-14T21:33:40.859Z,29.87
2022-11-14T21:38:46.301Z,37.20
2022-11-14T21:43:59.996Z,40.17
2022-11-14T21:49:05.393Z,30.23
2022-11-14T21:54:11.168Z,28.30
2022-11-14T21:59:19.269Z,40.10
2022-11-14T22:04:25.000Z,38.30
2022-11-14T22:09:31.031Z,29.63
2022-11-14T22:14:36.421Z,28.60
2022-11-14T22:19:41.754Z,29.23
2022-11-14T22:24:47.102Z,30.13
2022-11-14T22:29:52.442Z,32.83
2022-11-14T22:34:57.713Z,28.27
2022-11-14T22:40:03.195Z,33.13
2022-11-14T22:45:09.420Z,42.30
2022-11-14T22:50:14.647Z,33.90
2022-11-14T22:55:21.032Z,30.77
2022-11-14T23:00:26.468Z,39.30
2022-11-14T23:05:36.929Z,25.70
2022-11-14T23:10:42.278Z,36.90
2022-11-14T23:15:48.969Z,34.83
2022-11-14T23:20:54.123Z,28.57
2022-11-14T23:26:05.293Z,31.30
2022-11-14T23:31:12.928Z,32.03
2022-11-14T23:36:18.397Z,38.10
2022-11-14T23:41:26.154Z,27.03
2022-11-14T23:46:32.463Z,31.20
2022-11-14T23:51:38.048Z,22.60
2022-11-14T23:56:43.401Z,48.20
